createdAt,value
2017-09-01T00:00:48.832Z,11.90
2017-09-01T00:03:16.508Z,13.00
2017-09-01T00:05:44.060Z,13.53
2017-09-01T00:08:11.521Z,13.27
2017-09-01T00:10:39.353Z,14.63
2017-09-01T00:13:06.813Z,14.93
2017-09-01T00:15:34.263Z,15.23
2017-09-01T00:18:01.904Z,15.27
2017-09-01T00:20:29.364Z,15.40
2017-09-01T00:22:56.863Z,14.93
2017-09-01T00:25:24.436Z,15.10
2017-09-01T00:27:51.947Z,15.10
2017-09-01T00:30:19.420Z,16.10
2017-09-01T00:32:46.940Z,15.23
2017-09-01T00:35:14.480Z,14.80
2017-09-01T00:37:42.125Z,15.93
2017-09-01T00:40:09.663Z,14.63
2017-09-01T00:42:37.129Z,14.50
2017-09-01T00:45:04.652Z,16.57
2017-09-01T00:47:32.111Z,15.40
2017-09-01T00:49:59.599Z,16.03
2017-09-01T00:52:27.074Z,15.70
2017-09-01T00:54:54.544Z,14.10
2017-09-01T00:57:22.003Z,15.33
2017-09-01T00:59:49.475Z,16.48
2017-09-01T01:02:17.130Z,16.10
2017-09-01T01:04:44.690Z,15.07
2017-09-01T01:07:12.920Z,15.25
2017-09-01T01:09:40.492Z,15.65
2017-09-01T01:12:08.044Z,14.90
2017-09-01T01:14:35.591Z,14.18
2017-09-01T01:17:03.071Z,15.77
2017-09-01T01:19:30.663Z,15.57
2017-09-01T01:21:58.221Z,15.17
2017-09-01T01:24:25.687Z,15.73
2017-09-01T01:26:53.348Z,15.50
2017-09-01T01:29:20.840Z,15.03
2017-09-01T01:31:48.385Z,16.55
2017-09-01T01:34:15.875Z,16.95
2017-09-01T01:36:43.368Z,16.55
2017-09-01T01:39:11.644Z,15.30
2017-09-01T01:41:39.175Z,15.88
2017-09-01T01:44:06.723Z,16.40
2017-09-01T01:46:34.266Z,16.37
2017-09-01T01:49:01.904Z,16.48
2017-09-01T01:51:29.460Z,15.65
2017-09-01T01:53:56.997Z,16.70
2017-09-01T01:56:24.747Z,16.40
2017-09-01T01:58:52.215Z,16.90
2017-09-01T02:01:19.680Z,16.20
2017-09-01T02:03:47.238Z,17.47
2017-09-01T02:06:14.816Z,17.20
2017-09-01T02:08:42.281Z,17.05
2017-09-01T02:11:10.268Z,15.90
2017-09-01T02:13:37.756Z,15.25
2017-09-01T02:16:05.295Z,15.10
2017-09-01T02:18:32.835Z,16.45
2017-09-01T02:21:01.072Z,15.65
2017-09-01T02:23:28.644Z,16.15
2017-09-01T02:25:56.277Z,15.77
2017-09-01T02:28:23.836Z,15.60
2017-09-01T02:30:51.305Z,15.95
2017-09-01T02:33:19.851Z,15.23
2017-09-01T02:35:47.379Z,15.23
2017-09-01T02:38:15.620Z,14.45
2017-09-01T02:40:44.256Z,15.75
2017-09-01T02:43:11.737Z,14.60
2017-09-01T02:45:39.195Z,15.23
2017-09-01T02:48:06.727Z,14.82
2017-09-01T02:50:34.205Z,14.80
2017-09-01T02:53:01.662Z,14.80
2017-09-01T02:55:29.151Z,14.40
2017-09-01T02:57:56.708Z,15.77
2017-09-01T03:00:24.251Z,15.40
2017-09-01T03:02:51.808Z,15.07
2017-09-01T03:05:19.341Z,15.10
2017-09-01T03:07:46.880Z,13.50
2017-09-01T03:10:15.170Z,15.40
2017-09-01T03:12:42.712Z,14.38
2017-09-01T03:15:10.232Z,15.70
2017-09-01T03:17:37.780Z,15.07
2017-09-01T03:20:05.316Z,16.40
2017-09-01T03:22:32.790Z,14.98
2017-09-01T03:25:00.416Z,14.65
2017-09-01T03:27:27.944Z,14.43
2017-09-01T03:29:56.172Z,14.68
2017-09-01T03:32:23.654Z,14.80
2017-09-01T03:34:51.196Z,16.25
2017-09-01T03:37:18.935Z,16.08
2017-09-01T03:39:46.399Z,14.65
2017-09-01T03:42:13.869Z,15.68
2017-09-01T03:44:41.576Z,15.45
2017-09-01T03:47:09.040Z,15.60
2017-09-01T03:49:36.559Z,15.52
2017-09-01T03:52:04.306Z,14.20
2017-09-01T03:54:32.568Z,13.57
2017-09-01T03:57:00.108Z,15.93
2017-09-01T03:59:27.651Z,15.50
2017-09-01T04:01:55.197Z,16.00
2017-09-01T04:04:22.731Z,14.20
2017-09-01T04:06:50.488Z,16.60
2017-09-01T04:09:17.948Z,15.60
2017-09-01T04:11:45.415Z,15.13
2017-09-01T04:14:12.919Z,15.05
2017-09-01T04:16:41.151Z,14.25
2017-09-01T04:19:08.616Z,16.30
2017-09-01T04:21:36.161Z,14.27
2017-09-01T04:24:03.708Z,15.98
2017-09-01T04:26:31.217Z,15.70
2017-09-01T04:28:58.807Z,15.30
2017-09-01T04:31:26.334Z,14.50
2017-09-01T04:33:53.804Z,16.30
2017-09-01T04:36:21.473Z,15.95
2017-09-01T04:38:48.960Z,14.60
2017-09-01T04:41:17.319Z,14.07
2017-09-01T04:43:44.871Z,16.25
2017-09-01T04:46:12.336Z,14.75
2017-09-01T04:48:39.807Z,14.93
2017-09-01T04:51:07.350Z,15.05
2017-09-01T04:53:35.035Z,14.43
2017-09-01T04:56:02.495Z,14.35
2017-09-01T04:58:30.023Z,14.57
2017-09-01T05:00:57.772Z,15.52
2017-09-01T05:03:25.319Z,15.20
2017-09-01T05:05:52.788Z,14.30
2017-09-01T05:08:20.400Z,15.43
2017-09-01T05:10:47.868Z,15.65
2017-09-01T05:13:15.391Z,16.52
2017-09-01T05:15:43.032Z,15.57
2017-09-01T05:18:10.501Z,16.40
2017-09-01T05:20:38.648Z,16.30
2017-09-01T05:23:06.275Z,15.88
2017-09-01T05:25:33.748Z,15.65
2017-09-01T05:28:01.269Z,16.33
2017-09-01T05:30:29.016Z,14.02
2017-09-01T05:32:56.562Z,16.08
2017-09-01T05:35:24.028Z,17.05
2017-09-01T05:37:51.517Z,16.05
2017-09-01T05:40:18.981Z,17.20
2017-09-01T05:42:46.439Z,16.73
2017-09-01T05:45:13.959Z,17.77
2017-09-01T05:47:41.423Z,17.50
2017-09-01T05:50:08.953Z,15.73
2017-09-01T05:52:36.592Z,16.50
2017-09-01T05:55:04.059Z,16.17
2017-09-01T05:57:31.519Z,15.10
2017-09-01T05:59:58.996Z,15.13
2017-09-01T06:02:26.465Z,15.50
2017-09-01T06:04:53.945Z,14.30
2017-09-01T06:07:21.452Z,14.10
2017-09-01T06:09:48.911Z,14.30
2017-09-01T06:12:16.536Z,15.60
2017-09-01T06:14:44.055Z,14.83
2017-09-01T06:17:11.513Z,14.33
2017-09-01T06:19:38.984Z,14.07
2017-09-01T06:22:06.459Z,16.07
2017-09-01T06:24:33.948Z,14.13
2017-09-01T06:27:01.489Z,14.30
2017-09-01T06:29:29.028Z,14.07
2017-09-01T06:31:56.540Z,14.53
2017-09-01T06:34:23.992Z,12.97
2017-09-01T06:36:51.447Z,14.27
2017-09-01T06:39:18.932Z,15.00
2017-09-01T06:41:46.386Z,13.73
2017-09-01T06:44:13.848Z,14.20
2017-09-01T06:46:41.343Z,14.43
2017-09-01T06:49:08.872Z,13.43
2017-09-01T06:51:36.408Z,12.73
2017-09-01T06:54:03.908Z,13.50
2017-09-01T06:56:31.402Z,13.33
2017-09-01T06:58:58.865Z,12.63
2017-09-01T07:01:26.583Z,12.80
2017-09-01T07:03:54.124Z,13.37
2017-09-01T07:06:21.589Z,12.37
2017-09-01T07:08:49.107Z,14.63
2017-09-01T07:11:16.657Z,13.73
2017-09-01T07:13:44.124Z,12.30
2017-09-01T07:16:11.645Z,13.50
2017-09-01T07:18:39.192Z,13.10
2017-09-01T07:21:06.651Z,13.77
2017-09-01T07:23:34.176Z,14.20
2017-09-01T07:26:01.720Z,14.13
2017-09-01T07:28:29.255Z,12.70
2017-09-01T07:30:56.808Z,13.83
2017-09-01T07:33:24.347Z,13.90
2017-09-01T07:35:51.888Z,13.93
2017-09-01T07:38:19.428Z,14.30
2017-09-01T07:40:46.896Z,13.43
2017-09-01T07:43:14.379Z,14.47
2017-09-01T07:45:41.860Z,13.10
2017-09-01T07:48:10.123Z,13.47
2017-09-01T07:50:37.622Z,14.50
2017-09-01T07:53:05.108Z,15.00
2017-09-01T07:55:33.333Z,14.07
2017-09-01T07:58:00.904Z,14.10
2017-09-01T08:00:28.445Z,15.07
2017-09-01T08:02:55.987Z,15.30
2017-09-01T08:05:23.480Z,14.80
2017-09-01T08:07:50.981Z,15.10
2017-09-01T08:10:18.519Z,16.37
2017-09-01T08:12:46.044Z,17.40
2017-09-01T08:15:13.612Z,14.43
2017-09-01T08:17:41.072Z,14.70
2017-09-01T08:20:08.588Z,14.73
2017-09-01T08:22:36.140Z,15.80
2017-09-01T08:25:03.601Z,15.80
2017-09-01T08:27:31.248Z,16.00
2017-09-01T08:29:58.764Z,15.70
2017-09-01T08:32:26.303Z,14.90
2017-09-01T08:34:54.053Z,15.27
2017-09-01T08:37:21.516Z,15.03
2017-09-01T08:39:49.039Z,14.87
2017-09-01T08:42:16.545Z,15.37
2017-09-01T08:44:44.008Z,16.13
2017-09-01T08:47:11.572Z,15.17
2017-09-01T08:49:39.116Z,16.43
2017-09-01T08:52:06.652Z,16.53
2017-09-01T08:54:34.112Z,15.67
2017-09-01T08:57:01.648Z,16.17
2017-09-01T08:59:29.189Z,15.37
2017-09-01T09:01:56.734Z,15.07
2017-09-01T09:04:24.472Z,16.43
2017-09-01T09:06:52.068Z,15.40
2017-09-01T09:09:19.564Z,15.77
2017-09-01T09:11:47.048Z,16.60
2017-09-01T09:14:14.503Z,15.87
2017-09-01T09:16:41.996Z,14.23
2017-09-01T09:19:09.742Z,15.00
2017-09-01T09:21:37.285Z,15.10
2017-09-01T09:24:04.828Z,14.57
2017-09-01T09:26:32.312Z,15.63
2017-09-01T09:28:59.764Z,15.27
2017-09-01T09:31:27.253Z,16.97
2017-09-01T09:33:54.791Z,15.87
2017-09-01T09:36:22.255Z,16.40
2017-09-01T09:38:49.879Z,16.00
2017-09-01T09:41:17.429Z,17.27
2017-09-01T09:43:44.887Z,17.50
2017-09-01T09:46:12.411Z,17.17
2017-09-01T09:48:39.876Z,17.63
2017-09-01T09:51:07.343Z,16.33
2017-09-01T09:53:34.927Z,18.87
2017-09-01T09:56:02.480Z,17.37
2017-09-01T09:58:30.027Z,15.80
2017-09-01T10:00:57.535Z,16.97
2017-09-01T10:03:24.995Z,15.70
2017-09-01T10:05:52.455Z,15.30
2017-09-01T10:08:19.945Z,17.10
2017-09-01T10:10:47.452Z,16.70
2017-09-01T10:13:15.002Z,17.10
2017-09-01T10:15:43.439Z,16.40
2017-09-01T10:18:10.901Z,17.30
2017-09-01T10:20:38.422Z,19.30
2017-09-01T10:23:05.924Z,20.20
2017-09-01T10:25:33.388Z,20.27
2017-09-01T10:28:00.847Z,20.63
2017-09-01T10:30:28.396Z,22.27
2017-09-01T10:32:55.892Z,23.10
2017-09-01T10:35:23.349Z,23.97
2017-09-01T10:37:50.819Z,25.03
2017-09-01T10:40:18.331Z,24.50
2017-09-01T10:42:45.916Z,24.40
2017-09-01T10:45:13.432Z,26.73
2017-09-01T10:50:53.269Z,27.30
2017-09-01T10:53:32.827Z,27.93
2017-09-01T10:56:12.416Z,28.93
2017-09-01T10:58:39.920Z,26.17
2017-09-01T11:01:07.404Z,26.90
2017-09-01T11:03:34.939Z,25.13
2017-09-01T11:06:02.480Z,27.00
2017-09-01T11:08:30.029Z,25.80
2017-09-01T11:10:57.572Z,25.33
2017-09-01T11:13:25.031Z,25.60
2017-09-01T11:15:52.564Z,26.20
2017-09-01T11:18:20.036Z,24.27
2017-09-01T11:20:53.291Z,24.40
2017-09-01T11:23:26.505Z,24.80
2017-09-01T11:25:53.992Z,24.20
2017-09-01T11:28:21.448Z,24.20
2017-09-01T11:30:49.179Z,23.10
2017-09-01T11:33:16.639Z,25.27
2017-09-01T11:35:44.172Z,21.47
2017-09-01T11:38:11.720Z,20.07
2017-09-01T11:40:39.256Z,22.00
2017-09-01T11:43:06.808Z,21.40
2017-09-01T11:45:34.299Z,23.17
2017-09-01T11:48:01.780Z,24.73
2017-09-01T11:50:29.236Z,22.73
2017-09-01T11:52:56.743Z,21.70
2017-09-01T11:55:24.260Z,21.00
2017-09-01T11:57:51.796Z,20.93
2017-09-01T12:00:19.436Z,19.17
2017-09-01T12:02:46.992Z,18.60
2017-09-01T12:05:14.441Z,19.73
2017-09-01T12:07:41.967Z,18.63
2017-09-01T12:10:09.507Z,18.83
2017-09-01T12:12:37.058Z,19.50
2017-09-01T12:15:04.552Z,17.20
2017-09-01T12:17:32.142Z,17.93
2017-09-01T12:19:59.688Z,17.77
2017-09-01T12:22:27.339Z,17.97
2017-09-01T12:24:54.880Z,18.70
2017-09-01T12:27:23.101Z,18.70
2017-09-01T12:29:50.775Z,18.40
2017-09-01T12:32:18.323Z,18.93
2017-09-01T12:34:45.781Z,18.33
2017-09-01T12:37:13.495Z,22.40
2017-09-01T12:39:41.060Z,18.10
2017-09-01T12:42:08.600Z,18.57
2017-09-01T12:44:36.080Z,18.93
2017-09-01T12:47:03.524Z,19.67
2017-09-01T12:49:30.978Z,18.73
2017-09-01T12:51:58.466Z,20.00
2017-09-01T12:54:26.947Z,18.93
2017-09-01T12:56:54.491Z,19.10
2017-09-01T12:59:21.943Z,18.83
2017-09-01T13:01:49.473Z,19.40
2017-09-01T13:04:17.019Z,18.07
2017-09-01T13:06:44.485Z,16.63
2017-09-01T13:09:11.999Z,18.63
2017-09-01T13:11:39.465Z,18.10
2017-09-01T13:14:06.924Z,17.23
2017-09-01T13:16:34.400Z,15.30
2017-09-01T13:19:01.847Z,16.17
2017-09-01T13:21:29.308Z,16.10
2017-09-01T13:23:56.851Z,15.23
2017-09-01T13:26:24.312Z,16.43
2017-09-01T13:28:52.651Z,17.70
2017-09-01T13:31:20.203Z,16.80
2017-09-01T13:33:47.668Z,18.60
2017-09-01T13:36:15.116Z,17.33
2017-09-01T13:38:42.610Z,18.67
2017-09-01T13:41:10.169Z,18.07
2017-09-01T13:43:37.711Z,17.20
2017-09-01T13:46:05.260Z,18.63
2017-09-01T13:48:32.796Z,18.30
2017-09-01T13:51:00.341Z,16.40
2017-09-01T13:53:27.843Z,19.23
2017-09-01T13:55:55.296Z,18.03
2017-09-01T13:58:22.834Z,17.67
2017-09-01T14:00:50.388Z,19.63
2017-09-01T14:03:17.932Z,19.93
2017-09-01T14:05:45.387Z,21.30
2017-09-01T14:08:13.013Z,20.73
2017-09-01T14:10:40.472Z,20.70
2017-09-01T14:13:07.927Z,22.10
2017-09-01T14:15:35.424Z,19.27
2017-09-01T14:18:02.884Z,19.27
2017-09-01T14:20:30.424Z,17.50
2017-09-01T14:22:57.962Z,16.40
2017-09-01T14:25:25.429Z,14.60
2017-09-01T14:27:52.956Z,15.00
2017-09-01T14:30:20.502Z,13.83
2017-09-01T14:32:47.956Z,13.97
2017-09-01T14:35:15.484Z,13.10
2017-09-01T14:37:43.096Z,11.60
2017-09-01T14:40:10.567Z,11.60
2017-09-01T14:42:38.113Z,12.20
2017-09-01T14:45:05.839Z,13.00
2017-09-01T14:47:33.296Z,13.27
2017-09-01T14:50:00.747Z,13.77
2017-09-01T14:52:28.483Z,12.70
2017-09-01T14:54:56.017Z,12.80
2017-09-01T14:57:23.474Z,12.40
2017-09-01T14:59:51.000Z,10.57
2017-09-01T15:02:18.539Z,12.20
2017-09-01T15:04:46.023Z,12.13
2017-09-01T15:07:13.528Z,11.13
2017-09-01T15:09:41.071Z,10.03
2017-09-01T15:12:08.594Z,11.97
2017-09-01T15:14:36.055Z,10.07
2017-09-01T15:17:03.596Z,10.90
2017-09-01T15:19:31.141Z,10.23
2017-09-01T15:21:58.688Z,10.33
2017-09-01T15:24:26.144Z,11.63
2017-09-01T15:26:53.638Z,11.83
2017-09-01T15:29:21.384Z,12.83
2017-09-01T15:31:48.863Z,13.13
2017-09-01T15:34:16.401Z,14.40
2017-09-01T15:36:43.961Z,13.80
2017-09-01T15:39:11.416Z,15.50
2017-09-01T15:41:39.044Z,15.67
2017-09-01T15:44:06.491Z,17.13
2017-09-01T15:46:33.955Z,17.73
2017-09-01T15:49:01.440Z,17.57
2017-09-01T15:51:28.960Z,16.90
2017-09-01T15:53:56.417Z,17.83
2017-09-01T15:56:24.057Z,17.47
2017-09-01T15:58:51.599Z,16.93
2017-09-01T16:01:19.060Z,15.83
2017-09-01T16:03:46.593Z,15.87
2017-09-01T16:06:14.144Z,16.17
2017-09-01T16:08:41.675Z,15.13
2017-09-01T16:11:09.324Z,15.77
2017-09-01T16:13:36.788Z,15.17
2017-09-01T16:16:04.248Z,15.97
2017-09-01T16:18:31.753Z,16.07
2017-09-01T16:20:59.309Z,18.33
2017-09-01T16:23:26.764Z,16.70
2017-09-01T16:25:54.303Z,18.23
2017-09-01T16:28:21.839Z,17.83
2017-09-01T16:30:49.291Z,19.23
2017-09-01T16:33:16.792Z,17.10
2017-09-01T16:35:44.243Z,17.07
2017-09-01T16:38:11.708Z,18.50
2017-09-01T16:40:40.408Z,17.30
2017-09-01T16:43:07.929Z,14.97
2017-09-01T16:45:35.463Z,14.30
2017-09-01T16:48:03.015Z,11.27
2017-09-01T16:50:31.274Z,11.80
2017-09-01T16:52:59.632Z,13.17
2017-09-01T16:55:27.179Z,10.43
2017-09-01T16:57:55.430Z,10.53
2017-09-01T17:00:23.171Z,10.10
2017-09-01T17:02:50.723Z,10.50
2017-09-01T17:05:18.276Z,9.50
2017-09-01T17:07:45.813Z,9.90
2017-09-01T17:10:13.352Z,9.80
2017-09-01T17:12:40.895Z,9.17
2017-09-01T17:15:08.415Z,9.30
2017-09-01T17:17:35.904Z,9.13
2017-09-01T17:20:03.433Z,10.40
2017-09-01T17:22:31.253Z,10.07
2017-09-01T17:24:58.753Z,10.37
2017-09-01T17:27:26.207Z,10.50
2017-09-01T17:29:53.820Z,9.93
2017-09-01T17:32:21.279Z,11.00
2017-09-01T17:34:48.732Z,9.53
2017-09-01T17:37:16.478Z,9.53
2017-09-01T17:39:43.936Z,10.10
2017-09-01T17:42:11.392Z,10.00
2017-09-01T17:44:38.868Z,9.67
2017-09-01T17:47:09.926Z,10.20
2017-09-01T17:49:37.371Z,9.90
2017-09-01T17:52:04.909Z,11.87
2017-09-01T17:54:32.464Z,12.87
2017-09-01T17:57:07.548Z,11.23
2017-09-01T17:59:35.420Z,12.43
2017-09-01T18:02:03.000Z,10.87
2017-09-01T18:04:30.502Z,11.50
2017-09-01T18:06:57.996Z,10.20
2017-09-01T18:09:25.540Z,10.13
2017-09-01T18:11:53.041Z,10.73
2017-09-01T18:14:20.521Z,11.17
2017-09-01T18:16:48.107Z,10.87
2017-09-01T18:19:15.856Z,10.10
2017-09-01T18:21:43.392Z,11.13
2017-09-01T18:24:10.851Z,10.70
2017-09-01T18:26:38.409Z,11.13
2017-09-01T18:29:05.884Z,11.00
2017-09-01T18:31:33.572Z,10.00
2017-09-01T18:34:01.108Z,10.63
2017-09-01T18:36:29.349Z,10.37
2017-09-01T18:38:56.839Z,10.33
2017-09-01T18:41:24.292Z,11.47
2017-09-01T18:43:51.752Z,9.57
2017-09-01T18:46:19.452Z,10.17
2017-09-01T18:48:46.988Z,10.07
2017-09-01T18:51:14.529Z,10.47
2017-09-01T18:53:42.023Z,13.50
2017-09-01T18:56:09.552Z,14.30
2017-09-01T18:58:37.061Z,14.03
2017-09-01T19:01:04.720Z,11.97
2017-09-01T19:03:32.252Z,12.10
2017-09-01T19:05:59.716Z,12.20
2017-09-01T19:08:27.201Z,11.83
2017-09-01T19:10:54.711Z,12.17
2017-09-01T19:13:22.257Z,12.20
2017-09-01T19:15:50.008Z,15.57
2017-09-01T19:18:17.527Z,16.30
2017-09-01T19:20:45.756Z,22.70
2017-09-01T19:23:13.327Z,23.00
2017-09-01T19:25:40.837Z,15.30
2017-09-01T19:28:08.319Z,12.60
2017-09-01T19:30:35.882Z,12.67
2017-09-01T19:33:03.380Z,11.90
2017-09-01T19:35:30.940Z,12.40
2017-09-01T19:37:58.480Z,12.20
2017-09-01T19:40:26.029Z,13.30
2017-09-01T19:42:53.572Z,14.70
2017-09-01T19:45:21.080Z,17.33
2017-09-01T19:47:48.560Z,14.17
2017-09-01T19:50:16.060Z,14.80
2017-09-01T19:52:43.524Z,14.50
2017-09-01T19:55:11.031Z,13.10
2017-09-01T19:57:38.491Z,15.20
2017-09-01T20:00:06.003Z,14.83
2017-09-01T20:02:33.639Z,14.93
2017-09-01T20:05:01.103Z,14.40
2017-09-01T20:07:28.573Z,15.90
2017-09-01T20:09:56.219Z,14.20
2017-09-01T20:12:23.692Z,14.40
2017-09-01T20:14:51.971Z,14.93
2017-09-01T20:17:19.484Z,15.20
2017-09-01T20:19:47.736Z,16.30
2017-09-01T20:22:15.200Z,15.87
2017-09-01T20:24:42.748Z,17.40
2017-09-01T20:27:10.257Z,15.50
2017-09-01T20:29:37.716Z,14.67
2017-09-01T20:32:05.290Z,16.83
2017-09-01T20:34:32.797Z,15.27
2017-09-01T20:37:01.020Z,15.70
2017-09-01T20:39:28.688Z,15.27
2017-09-01T20:41:56.231Z,15.73
2017-09-01T20:44:23.788Z,17.70
2017-09-01T20:46:51.263Z,15.50
2017-09-01T20:49:18.763Z,16.00
2017-09-01T20:51:46.311Z,19.93
2017-09-01T20:54:13.848Z,16.70
2017-09-01T20:56:41.399Z,16.87
2017-09-01T20:59:08.883Z,17.50
2017-09-01T21:01:36.357Z,16.50
2017-09-01T21:04:03.924Z,17.30
2017-09-01T21:06:31.380Z,17.27
2017-09-01T21:08:58.907Z,17.03
2017-09-01T21:11:26.452Z,15.90
2017-09-01T21:13:53.954Z,15.40
2017-09-01T21:16:21.432Z,14.43
2017-09-01T21:18:48.980Z,14.30
2017-09-01T21:21:16.436Z,14.50
2017-09-01T21:23:43.960Z,14.57
2017-09-01T21:26:11.419Z,13.03
2017-09-01T21:28:38.885Z,13.37
2017-09-01T21:31:06.408Z,14.27
2017-09-01T21:33:33.931Z,13.60
2017-09-01T21:36:01.403Z,12.67
2017-09-01T21:38:29.956Z,15.00
2017-09-01T21:40:57.448Z,12.53
2017-09-01T21:43:24.928Z,12.93
2017-09-01T21:45:53.184Z,12.70
2017-09-01T21:48:20.741Z,13.10
2017-09-01T21:50:48.199Z,12.63
2017-09-01T21:53:15.716Z,12.37
2017-09-01T21:55:43.221Z,13.47
2017-09-01T21:58:11.511Z,13.10
2017-09-01T22:00:38.984Z,12.73
2017-09-01T22:03:06.505Z,12.57
2017-09-01T22:05:33.968Z,13.37
2017-09-01T22:08:01.486Z,14.03
2017-09-01T22:10:29.030Z,13.53
2017-09-01T22:12:56.568Z,13.20
2017-09-01T22:15:24.220Z,13.43
2017-09-01T22:17:51.680Z,14.90
2017-09-01T22:20:19.900Z,13.47
2017-09-01T22:22:47.469Z,13.30
2017-09-01T22:25:14.920Z,13.30
2017-09-01T22:27:42.385Z,13.20
2017-09-01T22:30:10.091Z,14.20
2017-09-01T22:32:37.555Z,13.87
2017-09-01T22:35:05.077Z,14.13
2017-09-01T22:37:32.623Z,14.03
2017-09-01T22:40:00.884Z,13.67
2017-09-01T22:42:28.430Z,14.33
2017-09-01T22:44:56.230Z,14.33
2017-09-01T22:47:23.724Z,13.80
2017-09-01T22:49:51.183Z,13.70
2017-09-01T22:52:18.677Z,14.57
2017-09-01T22:54:46.133Z,14.43
2017-09-01T22:57:13.591Z,14.40
2017-09-01T22:59:41.960Z,14.40
2017-09-01T23:02:09.592Z,13.80
2017-09-01T23:04:37.132Z,12.73
2017-09-01T23:07:04.595Z,13.60
2017-09-01T23:09:32.124Z,14.33
2017-09-01T23:11:59.769Z,13.80
2017-09-01T23:14:27.307Z,14.67
2017-09-01T23:16:54.852Z,13.53
2017-09-01T23:19:22.599Z,14.30
2017-09-01T23:21:50.148Z,15.43
2017-09-01T23:24:17.684Z,14.87
2017-09-01T23:26:45.184Z,16.37
2017-09-01T23:29:12.678Z,14.77
2017-09-01T23:31:40.320Z,14.63
2017-09-01T23:34:07.836Z,14.67
2017-09-01T23:36:35.308Z,15.20
2017-09-01T23:39:02.763Z,16.30
2017-09-01T23:41:30.249Z,14.43
2017-09-01T23:43:57.736Z,15.70
2017-09-01T23:46:25.279Z,15.83
2017-09-01T23:48:52.820Z,14.03
2017-09-01T23:51:20.363Z,15.23
2017-09-01T23:53:47.900Z,14.40
2017-09-01T23:56:15.403Z,13.67
2017-09-01T23:58:42.888Z,14.77
